Sunday, January 21, 2018, 3:36 PM EST
Back to Local

KBGR, Bangor Int'l Airport

Location: Bangor, ME, United States Lat: 44.8
Local Time: 3:36 PM EST (20:36 GMT) Lon: -68.817
Time Zone: US/Eastern Elev: 193 ft

Show me the last for .
Show Decoded

2018-01-21 14:53 METAR KBGR 211953Z 35005KT 10SM SCT050 SCT150 BKN250 03/M07 A3007 RMK AO2 SLP184
                 T00281067 =
2018-01-21 13:53 METAR KBGR 211853Z 00000KT 10SM SCT050 SCT150 BKN250 03/M08 A3006 RMK AO2 SLP179
                 T00331078 =
2018-01-21 12:53 METAR KBGR 211753Z 12006KT 10SM FEW050 SCT150 BKN250 02/M08 A3005 RMK AO2 SLP176
                 4/004 T00171078 10022 21028 58010 =
2018-01-21 11:53 METAR KBGR 211653Z 03004KT 10SM FEW050 BKN150 BKN250 02/M08 A3005 RMK AO2 SLP179
                 T00171083 =
2018-01-21 10:53 METAR KBGR 211553Z 33004KT 10SM FEW050 SCT150 SCT250 01/M07 A3008 RMK AO2 SLP187
                 T00111072 =
2018-01-21 09:53 METAR KBGR 211453Z 31003KT 10SM FEW050 SCT150 SCT250 M01/M08 A3007 RMK AO2
                 SLP186 T10061083 51024 =
2018-01-21 08:53 METAR KBGR 211353Z 36012KT 10SM FEW050 SCT150 M01/M08 A3006 RMK AO2 SLP180
                 T10061083 =
2018-01-21 07:53 METAR KBGR 211253Z 32005KT 10SM FEW035 FEW150 M02/M07 A3003 RMK AO2 SLP172
                 T10221072 =
2018-01-21 06:53 METAR KBGR 211153Z 33007KT 10SM FEW035 SCT050 SCT150 M02/M06 A3000 RMK AO2
                 SLP162 4/004 T10221061 10044 21022 51029 =
2018-01-21 05:53 METAR KBGR 211053Z 32005KT 10SM SCT050 M01/M05 A2999 RMK AO2 SLP156 T10061050 =
2018-01-21 04:53 METAR KBGR 210953Z 34008KT 10SM BKN039 OVC048 02/M04 A2995 RMK AO2 SLP144
                 T00171039 =
2018-01-21 03:53 METAR KBGR 210853Z 32005KT 10SM OVC045 02/M03 A2992 RMK AO2 SLP131 T00221033
                 53029 =
2018-01-21 02:53 METAR KBGR 210753Z 31005KT 10SM OVC050 03/M04 A2988 RMK AO2 SLP117 T00331044 =
2018-01-21 01:53 METAR KBGR 210653Z 30005KT 10SM BKN047 OVC060 04/M05 A2986 RMK AO2 SLP112
                 T00391050 =
2018-01-21 00:53 METAR KBGR 210553Z 29006G16KT 10SM OVC060 04/M04 A2983 RMK AO2 SLP102 4/005
                 T00441044 10061 20044 51021 =
2018-01-20 23:53 METAR KBGR 210453Z 30012G18KT 10SM SCT060 04/M04 A2981 RMK AO2 SLP097 T00441039
                 400671028 =
2018-01-20 22:53 METAR KBGR 210353Z 30014G25KT 10SM FEW045 BKN060 05/M04 A2979 RMK AO2 SLP088
                 T00501039 =
2018-01-20 21:53 METAR KBGR 210253Z 28009KT 10SM BKN045 OVC060 06/M03 A2977 RMK AO2 SLP082
                 T00561028 53028 =
2018-01-20 20:53 METAR KBGR 210153Z 28014G21KT 10SM OVC049 06/M03 A2974 RMK AO2 SLP071 T00611033
                 =
2018-01-20 19:53 METAR KBGR 210053Z 26008KT 10SM OVC047 05/M03 A2970 RMK AO2 SLP060 T00501033 =
2018-01-20 18:53 METAR KBGR 202353Z 24007KT 10SM OVC055 05/M03 A2968 RMK AO2 SLP053 4/006
                 T00501028 10067 20044 53033 =
2018-01-20 17:53 METAR KBGR 202253Z 25009G17KT 10SM SCT050 04/M03 A2965 RMK AO2 SLP043 T00441028
                 =
2018-01-20 16:53 METAR KBGR 202153Z 26010G18KT 10SM BKN055 05/M03 A2960 RMK AO2 SLP027 T00501028
                 =
2018-01-20 15:53 METAR KBGR 202053Z 28011G17KT 10SM OVC050 06/M03 A2959 RMK AO2 SLP021 T00561028
                 53027 =

Support USWX by starting your Amazon purchase here.